createdAt,value
2019-02-14T00:02:24.663Z,2.10
2019-02-14T00:04:56.000Z,2.27
2019-02-14T00:07:27.022Z,1.90
2019-02-14T00:09:57.978Z,1.98
2019-02-14T00:12:29.037Z,1.92
2019-02-14T00:15:00.219Z,1.80
2019-02-14T00:17:31.543Z,1.95
2019-02-14T00:20:02.647Z,1.92
2019-02-14T00:22:33.821Z,1.80
2019-02-14T00:25:05.277Z,2.10
2019-02-14T00:27:36.492Z,1.92
2019-02-14T00:30:07.508Z,2.10
2019-02-14T00:32:38.598Z,2.00
2019-02-14T00:35:09.623Z,1.80
2019-02-14T00:37:40.586Z,1.85
2019-02-14T00:40:11.881Z,1.72
2019-02-14T00:42:43.122Z,1.70
2019-02-14T00:45:14.417Z,1.70
2019-02-14T00:47:45.549Z,2.05
2019-02-14T00:50:16.791Z,1.92
2019-02-14T00:52:47.936Z,1.70
2019-02-14T00:55:19.210Z,1.92
2019-02-14T00:57:50.644Z,1.98
2019-02-14T01:00:21.649Z,1.80
2019-02-14T01:02:52.862Z,1.90
2019-02-14T01:05:24.103Z,1.90
2019-02-14T01:07:55.367Z,1.65
2019-02-14T01:10:26.460Z,1.67
2019-02-14T01:12:57.703Z,1.87
2019-02-14T01:15:29.061Z,1.80
2019-02-14T01:18:00.116Z,1.80
2019-02-14T01:20:31.283Z,1.80
2019-02-14T01:23:02.232Z,1.60
2019-02-14T01:25:33.466Z,1.75
2019-02-14T01:28:04.488Z,1.80
2019-02-14T01:30:35.504Z,1.85
2019-02-14T01:33:06.484Z,1.77
2019-02-14T01:35:41.936Z,1.80
2019-02-14T01:38:10.596Z,1.92
2019-02-14T01:40:41.642Z,1.60
2019-02-14T01:43:12.763Z,1.72
2019-02-14T01:45:44.031Z,1.60
2019-02-14T01:48:15.285Z,1.70
2019-02-14T01:50:46.521Z,1.80
2019-02-14T01:53:17.759Z,1.60
2019-02-14T01:55:48.585Z,1.70
2019-02-14T01:58:19.670Z,1.60
2019-02-14T02:00:50.578Z,1.67
2019-02-14T02:03:21.626Z,1.90
2019-02-14T02:05:52.829Z,1.50
2019-02-14T02:08:24.089Z,1.70
2019-02-14T02:10:55.463Z,1.75
2019-02-14T02:13:26.413Z,1.60
2019-02-14T02:15:57.484Z,1.80
2019-02-14T02:18:29.220Z,1.80
2019-02-14T02:21:00.080Z,1.50
2019-02-14T02:23:30.967Z,1.67
2019-02-14T02:26:02.050Z,1.60
2019-02-14T02:28:33.095Z,1.80
2019-02-14T02:31:04.079Z,1.40
2019-02-14T02:33:35.196Z,1.70
2019-02-14T02:36:06.365Z,1.50
2019-02-14T02:38:37.528Z,1.65
2019-02-14T02:41:08.542Z,1.45
2019-02-14T02:43:39.595Z,1.65
2019-02-14T02:46:10.594Z,1.60
2019-02-14T02:48:41.520Z,1.67
2019-02-14T02:51:12.660Z,1.22
2019-02-14T02:53:43.655Z,1.70
2019-02-14T02:56:14.585Z,1.62
2019-02-14T02:58:45.795Z,1.60
2019-02-14T03:01:16.971Z,1.70
2019-02-14T03:03:48.867Z,1.57
2019-02-14T03:06:20.083Z,1.60
2019-02-14T03:08:54.326Z,1.62
2019-02-14T03:11:25.531Z,1.67
2019-02-14T03:13:56.647Z,1.60
2019-02-14T03:16:27.815Z,1.60
2019-02-14T03:18:58.898Z,1.40
2019-02-14T03:21:30.035Z,1.32
2019-02-14T03:24:01.283Z,1.67
2019-02-14T03:26:32.322Z,1.50
2019-02-14T03:29:03.927Z,1.60
2019-02-14T03:31:35.200Z,1.60
2019-02-14T03:34:06.369Z,1.60
2019-02-14T03:36:37.589Z,1.50
2019-02-14T03:39:09.583Z,1.72
2019-02-14T03:41:40.912Z,1.65
2019-02-14T03:44:12.026Z,1.60
2019-02-14T03:46:43.178Z,1.62
2019-02-14T03:49:14.235Z,1.50
2019-02-14T03:51:45.306Z,1.45
2019-02-14T03:54:16.426Z,1.52
2019-02-14T03:56:47.596Z,1.50
2019-02-14T03:59:18.693Z,1.45
2019-02-14T04:01:49.692Z,1.52
2019-02-14T04:04:20.811Z,1.62
2019-02-14T04:06:51.980Z,1.60
2019-02-14T04:09:23.167Z,1.70
2019-02-14T04:12:13.147Z,1.60
2019-02-14T04:14:44.328Z,1.40
2019-02-14T04:17:15.595Z,1.50
2019-02-14T04:19:46.938Z,1.70
2019-02-14T04:22:18.255Z,1.50
2019-02-14T04:24:49.266Z,1.40
2019-02-14T04:27:20.394Z,1.45
2019-02-14T04:29:51.904Z,1.60
2019-02-14T04:32:23.181Z,1.50
2019-02-14T04:34:54.356Z,1.30
2019-02-14T04:37:25.574Z,1.40
2019-02-14T04:39:56.687Z,1.40
2019-02-14T04:42:27.910Z,1.62
2019-02-14T04:44:59.005Z,1.50
2019-02-14T04:47:30.149Z,1.40
2019-02-14T04:50:01.360Z,1.62
2019-02-14T04:52:32.637Z,1.60
2019-02-14T04:55:03.778Z,1.40
2019-02-14T04:57:35.037Z,1.50
2019-02-14T05:00:06.509Z,1.40
2019-02-14T05:02:37.571Z,1.32
2019-02-14T05:05:08.779Z,1.40
2019-02-14T05:07:40.206Z,1.47
2019-02-14T05:10:11.378Z,1.60
2019-02-14T05:12:42.460Z,1.50
2019-02-14T05:15:13.764Z,1.50
2019-02-14T05:17:44.934Z,1.60
2019-02-14T05:20:16.177Z,1.32
2019-02-14T05:22:47.195Z,1.50
2019-02-14T05:25:18.257Z,1.42
2019-02-14T05:27:49.367Z,1.30
2019-02-14T05:30:20.547Z,1.37
2019-02-14T05:32:51.692Z,1.45
2019-02-14T05:35:22.835Z,1.50
2019-02-14T05:37:54.198Z,1.45
2019-02-14T05:40:25.540Z,1.75
2019-02-14T05:42:56.733Z,1.50
2019-02-14T05:45:27.706Z,1.40
2019-02-14T05:47:58.737Z,1.42
2019-02-14T05:50:29.761Z,1.67
2019-02-14T05:53:00.957Z,1.50
2019-02-14T05:55:32.067Z,1.60
2019-02-14T05:58:03.170Z,1.40
2019-02-14T06:00:34.298Z,1.87
2019-02-14T06:03:05.314Z,1.60
2019-02-14T06:05:36.557Z,1.50
2019-02-14T06:08:07.817Z,1.55
2019-02-14T06:10:38.918Z,1.30
2019-02-14T06:13:09.998Z,1.70
2019-02-14T06:15:41.231Z,1.90
2019-02-14T06:18:12.537Z,5.85
2019-02-14T06:20:44.577Z,2.75
2019-02-14T06:23:16.833Z,2.12
2019-02-14T06:25:47.935Z,2.20
2019-02-14T06:28:19.196Z,1.82
2019-02-14T06:30:50.138Z,2.08
2019-02-14T06:33:20.997Z,1.90
2019-02-14T06:35:52.257Z,2.10
2019-02-14T06:38:23.234Z,2.10
2019-02-14T06:40:54.571Z,1.90
2019-02-14T06:43:25.886Z,1.80
2019-02-14T06:45:57.151Z,2.10
2019-02-14T06:48:28.393Z,2.77
2019-02-14T06:50:59.417Z,2.90
2019-02-14T06:53:30.669Z,3.33
2019-02-14T06:56:01.809Z,3.08
2019-02-14T06:58:33.140Z,3.55
2019-02-14T07:01:04.225Z,4.20
2019-02-14T07:03:35.401Z,6.28
2019-02-14T07:06:06.467Z,5.62
2019-02-14T07:08:37.726Z,5.30
2019-02-14T07:11:08.764Z,6.85
2019-02-14T07:13:39.774Z,6.92
2019-02-14T07:16:11.213Z,8.20
2019-02-14T07:18:42.226Z,8.98
2019-02-14T07:21:13.517Z,8.18
2019-02-14T07:23:44.647Z,8.10
2019-02-14T07:26:15.782Z,8.05
2019-02-14T07:28:46.991Z,8.10
2019-02-14T07:31:17.869Z,8.28
2019-02-14T07:33:49.034Z,12.88
2019-02-14T07:36:20.248Z,12.55
2019-02-14T07:38:51.619Z,12.60
2019-02-14T07:41:22.866Z,11.50
2019-02-14T07:43:54.045Z,13.20
2019-02-14T07:46:25.151Z,11.55
2019-02-14T07:48:56.043Z,8.85
2019-02-14T07:51:27.321Z,8.30
2019-02-14T07:53:58.521Z,7.85
2019-02-14T07:56:29.663Z,8.30
2019-02-14T07:59:00.815Z,11.20
2019-02-14T08:01:32.023Z,10.93
2019-02-14T08:04:02.797Z,9.18
2019-02-14T08:06:33.962Z,7.17
2019-02-14T08:09:05.850Z,7.08
2019-02-14T08:11:37.116Z,6.12
2019-02-14T08:14:08.413Z,6.10
2019-02-14T08:16:39.551Z,5.50
2019-02-14T08:19:10.676Z,5.85
2019-02-14T08:21:42.045Z,4.97
2019-02-14T08:24:12.991Z,4.72
2019-02-14T08:26:44.562Z,4.47
2019-02-14T08:29:15.525Z,3.67
2019-02-14T08:31:46.561Z,3.50
2019-02-14T08:34:17.618Z,3.70
2019-02-14T08:36:48.864Z,5.20
2019-02-14T08:39:19.940Z,4.03
2019-02-14T08:41:51.050Z,4.03
2019-02-14T08:44:22.179Z,3.50
2019-02-14T08:46:53.416Z,3.83
2019-02-14T08:49:24.488Z,3.90
2019-02-14T08:51:55.616Z,4.15
2019-02-14T08:54:26.671Z,3.60
2019-02-14T08:56:57.827Z,3.58
2019-02-14T08:59:29.089Z,3.40
2019-02-14T09:02:00.212Z,3.08
2019-02-14T09:04:31.464Z,3.30
2019-02-14T09:07:02.778Z,3.30
2019-02-14T09:09:34.031Z,3.22
2019-02-14T09:12:08.401Z,3.10
2019-02-14T09:14:41.750Z,3.10
2019-02-14T09:17:17.967Z,3.25
2019-02-14T09:19:48.974Z,3.62
2019-02-14T09:22:20.242Z,2.92
2019-02-14T09:24:52.508Z,3.15
2019-02-14T09:27:23.762Z,3.15
2019-02-14T09:29:54.956Z,3.30
2019-02-14T09:32:26.805Z,3.25
2019-02-14T09:34:57.949Z,3.10
2019-02-14T09:37:29.058Z,2.98
2019-02-14T09:40:00.240Z,3.25
2019-02-14T09:42:31.417Z,3.33
2019-02-14T09:45:02.482Z,3.20
2019-02-14T09:47:33.702Z,3.12
2019-02-14T09:50:05.334Z,3.15
2019-02-14T09:52:36.383Z,2.80
2019-02-14T09:55:07.774Z,3.00
2019-02-14T09:57:39.013Z,2.90
2019-02-14T10:00:13.708Z,2.85
2019-02-14T10:02:44.365Z,2.90
2019-02-14T10:05:15.452Z,3.45
2019-02-14T10:07:46.657Z,2.72
2019-02-14T10:10:18.735Z,2.72
2019-02-14T10:12:49.679Z,2.92
2019-02-14T10:15:20.615Z,3.00
2019-02-14T10:17:51.550Z,2.55
2019-02-14T10:20:22.286Z,2.67
2019-02-14T10:22:52.991Z,2.72
2019-02-14T10:25:24.061Z,2.92
2019-02-14T10:27:54.933Z,2.62
2019-02-14T10:30:25.868Z,2.87
2019-02-14T10:32:56.868Z,2.37
2019-02-14T10:35:27.824Z,2.72
2019-02-14T10:37:59.064Z,2.40
2019-02-14T10:40:30.287Z,2.80
2019-02-14T10:43:01.603Z,2.50
2019-02-14T10:45:32.845Z,2.30
2019-02-14T10:48:04.065Z,2.83
2019-02-14T10:50:35.068Z,2.50
2019-02-14T10:53:06.070Z,2.30
2019-02-14T10:55:37.176Z,2.42
2019-02-14T10:58:08.276Z,2.25
2019-02-14T11:00:39.461Z,2.30
2019-02-14T11:03:10.420Z,2.30
2019-02-14T11:05:41.572Z,2.42
2019-02-14T11:08:12.817Z,2.37
2019-02-14T11:10:43.925Z,2.58
2019-02-14T11:13:14.974Z,2.33
2019-02-14T11:15:46.301Z,2.50
2019-02-14T11:18:17.294Z,2.30
2019-02-14T11:20:48.440Z,2.37
2019-02-14T11:23:19.512Z,2.20
2019-02-14T11:25:50.699Z,2.30
2019-02-14T11:28:21.806Z,2.10
2019-02-14T11:30:53.148Z,2.30
2019-02-14T11:33:24.470Z,2.27
2019-02-14T11:35:55.703Z,2.00
2019-02-14T11:38:26.816Z,1.92
2019-02-14T11:40:58.012Z,2.02
2019-02-14T11:43:29.174Z,2.25
2019-02-14T11:46:00.442Z,2.20
2019-02-14T11:48:31.708Z,2.00
2019-02-14T11:51:02.960Z,2.08
2019-02-14T11:53:33.931Z,1.98
2019-02-14T11:56:05.299Z,2.20
2019-02-14T11:58:36.359Z,2.05
2019-02-14T12:01:07.531Z,2.10
2019-02-14T12:03:38.603Z,2.05
2019-02-14T12:06:09.744Z,2.30
2019-02-14T12:08:52.934Z,2.30
2019-02-14T12:11:13.532Z,2.05
2019-02-14T12:13:44.616Z,2.25
2019-02-14T12:16:15.758Z,2.05
2019-02-14T12:18:46.946Z,2.05
2019-02-14T12:21:18.083Z,2.00
2019-02-14T12:23:49.285Z,2.00
2019-02-14T12:26:20.490Z,2.05
2019-02-14T12:28:51.419Z,2.10
2019-02-14T12:31:22.634Z,2.17
2019-02-14T12:33:53.894Z,2.00
2019-02-14T12:36:25.093Z,1.82
2019-02-14T12:38:56.094Z,1.95
2019-02-14T12:41:27.066Z,1.98
2019-02-14T12:43:58.188Z,1.80
2019-02-14T12:46:29.340Z,1.90
2019-02-14T12:49:00.458Z,1.80
2019-02-14T12:51:31.839Z,2.05
2019-02-14T12:54:03.132Z,2.00
2019-02-14T12:56:34.442Z,1.85
2019-02-14T12:59:05.549Z,1.80
2019-02-14T13:01:36.799Z,1.90
2019-02-14T13:04:08.061Z,1.50
2019-02-14T13:06:39.287Z,1.70
2019-02-14T13:09:19.729Z,1.60
2019-02-14T13:11:43.311Z,1.87
2019-02-14T13:14:14.401Z,2.00
2019-02-14T13:16:45.713Z,1.70
2019-02-14T13:19:16.888Z,1.62
2019-02-14T13:21:48.097Z,1.80
2019-02-14T13:24:19.198Z,1.90
2019-02-14T13:26:50.327Z,1.70
2019-02-14T13:29:21.672Z,2.05
2019-02-14T13:31:53.126Z,1.82
2019-02-14T13:34:24.370Z,1.90
2019-02-14T13:37:01.551Z,1.72
2019-02-14T13:39:29.861Z,1.67
2019-02-14T13:42:01.291Z,1.60
2019-02-14T13:44:32.436Z,1.82
2019-02-14T13:47:03.671Z,1.80
2019-02-14T13:49:34.915Z,1.90
2019-02-14T13:52:06.272Z,1.80
2019-02-14T13:54:37.488Z,1.67
2019-02-14T13:57:08.870Z,1.80
2019-02-14T13:59:40.532Z,1.62
2019-02-14T14:02:12.160Z,1.70
2019-02-14T14:04:44.830Z,1.70
2019-02-14T14:07:16.059Z,1.70
2019-02-14T14:09:47.104Z,1.90
2019-02-14T14:12:18.107Z,1.70
2019-02-14T14:14:49.248Z,1.85
2019-02-14T14:17:20.638Z,1.70
2019-02-14T14:19:51.880Z,1.82
2019-02-14T14:22:24.172Z,1.57
2019-02-14T14:24:55.308Z,1.82
2019-02-14T14:27:27.137Z,1.75
2019-02-14T14:29:58.863Z,1.80
2019-02-14T14:32:30.734Z,1.75
2019-02-14T14:35:02.594Z,1.50
2019-02-14T14:37:33.733Z,1.90
2019-02-14T14:40:05.141Z,1.70
2019-02-14T14:43:04.139Z,1.77
2019-02-14T14:45:46.144Z,1.90
2019-02-14T14:48:19.683Z,1.70
2019-02-14T14:50:50.214Z,1.80
2019-02-14T14:53:22.964Z,1.70
2019-02-14T14:55:54.498Z,1.85
2019-02-14T14:58:25.739Z,1.72
2019-02-14T15:00:57.112Z,1.55
2019-02-14T15:03:28.184Z,2.10
2019-02-14T15:05:59.317Z,1.98
2019-02-14T15:08:30.587Z,1.47
2019-02-14T15:11:01.942Z,1.75
2019-02-14T15:13:33.108Z,1.80
2019-02-14T15:16:04.466Z,1.72
2019-02-14T15:18:37.185Z,1.57
2019-02-14T15:21:08.392Z,1.90
2019-02-14T15:23:39.663Z,1.60
2019-02-14T15:26:12.343Z,1.77
2019-02-14T15:28:43.985Z,1.60
2019-02-14T15:31:15.194Z,1.60
2019-02-14T15:33:50.582Z,1.70
2019-02-14T15:36:24.222Z,2.77
2019-02-14T15:38:56.440Z,2.83
2019-02-14T15:41:27.485Z,3.15
2019-02-14T15:43:58.663Z,999.90
2019-02-14T15:46:30.518Z,877.97
2019-02-14T15:49:02.319Z,861.20
2019-02-14T15:51:33.461Z,877.15
2019-02-14T15:54:07.336Z,855.65
2019-02-14T15:56:40.535Z,836.82
2019-02-14T15:59:11.905Z,781.85
2019-02-14T16:01:44.428Z,740.12
2019-02-14T16:04:15.617Z,557.80
2019-02-14T16:06:46.945Z,474.62
2019-02-14T16:09:18.051Z,417.70
2019-02-14T16:11:49.243Z,343.02
2019-02-14T16:14:20.980Z,279.43
2019-02-14T16:16:52.235Z,225.78
2019-02-14T16:19:23.505Z,216.40
2019-02-14T16:21:56.119Z,188.47
2019-02-14T16:24:27.437Z,114.88
2019-02-14T16:26:59.569Z,77.95
2019-02-14T16:29:32.104Z,64.20
2019-02-14T16:32:11.614Z,61.60
2019-02-14T16:34:42.688Z,63.02
2019-02-14T16:37:13.791Z,62.78
2019-02-14T16:39:51.979Z,66.40
2019-02-14T16:42:21.335Z,67.78
2019-02-14T16:44:52.601Z,64.77
2019-02-14T16:47:23.782Z,68.85
2019-02-14T16:49:56.849Z,64.22
2019-02-14T16:52:31.159Z,63.98
2019-02-14T16:55:03.604Z,62.35
2019-02-14T16:57:36.186Z,61.48
2019-02-14T17:00:09.576Z,60.03
2019-02-14T17:02:40.995Z,59.55
2019-02-14T17:05:12.634Z,57.78
2019-02-14T17:07:44.310Z,57.17
2019-02-14T17:10:15.981Z,52.53
2019-02-14T17:12:48.026Z,51.02
2019-02-14T17:15:19.601Z,49.15
2019-02-14T17:17:51.271Z,48.65
2019-02-14T17:20:22.789Z,48.63
2019-02-14T17:22:56.164Z,48.65
2019-02-14T17:25:28.880Z,45.05
2019-02-14T17:28:00.365Z,47.23
2019-02-14T17:30:31.703Z,44.70
2019-02-14T17:33:03.632Z,43.30
2019-02-14T17:35:35.376Z,40.33
2019-02-14T17:38:06.698Z,41.50
2019-02-14T17:40:45.622Z,41.08
2019-02-14T17:43:10.359Z,40.58
2019-02-14T17:45:45.472Z,38.40
2019-02-14T17:48:15.995Z,39.35
2019-02-14T17:50:46.430Z,37.85
2019-02-14T17:53:18.572Z,38.70
2019-02-14T17:55:49.121Z,34.92
2019-02-14T17:58:20.855Z,35.48
2019-02-14T18:00:52.537Z,35.60
2019-02-14T18:17:09.192Z,26.95
2019-02-14T18:19:41.372Z,26.87
2019-02-14T18:22:11.764Z,26.23
2019-02-14T18:24:43.331Z,25.10
2019-02-14T18:27:13.799Z,23.77
2019-02-14T18:29:44.156Z,21.85
2019-02-14T18:32:14.608Z,22.30
2019-02-14T18:34:45.093Z,21.30
2019-02-14T18:37:15.642Z,19.42
2019-02-14T18:39:46.012Z,20.08
2019-02-14T18:42:16.375Z,20.80
2019-02-14T18:44:48.149Z,19.30
2019-02-14T18:47:20.142Z,20.12
2019-02-14T18:49:50.528Z,19.80
2019-02-14T18:52:20.856Z,18.37
2019-02-14T18:54:52.418Z,18.60
2019-02-14T18:57:24.408Z,17.95
2019-02-14T18:59:54.964Z,17.32
2019-02-14T19:02:25.368Z,18.27
2019-02-14T19:04:56.099Z,17.12
2019-02-14T19:07:27.707Z,17.70
2019-02-14T19:09:58.086Z,16.17
2019-02-14T19:12:28.449Z,16.52
2019-02-14T19:14:58.947Z,15.32
2019-02-14T19:17:29.567Z,15.28
2019-02-14T19:19:59.903Z,14.70
2019-02-14T19:22:30.534Z,14.50
2019-02-14T19:25:02.080Z,14.43
2019-02-14T19:27:32.728Z,13.28
2019-02-14T19:30:03.113Z,14.05
2019-02-14T19:32:33.505Z,12.90
2019-02-14T19:35:06.316Z,13.15
2019-02-14T19:37:37.792Z,13.50
2019-02-14T19:40:08.642Z,11.53
2019-02-14T19:42:40.908Z,12.03
2019-02-14T19:45:12.404Z,11.20
2019-02-14T19:47:42.731Z,11.93
2019-02-14T19:50:14.007Z,11.95
2019-02-14T19:52:44.492Z,12.55
2019-02-14T19:55:14.985Z,12.73
2019-02-14T19:57:45.596Z,11.12
2019-02-14T20:00:17.902Z,10.82
2019-02-14T20:02:48.390Z,10.88
2019-02-14T20:05:22.471Z,11.20
2019-02-14T20:07:55.421Z,11.63
2019-02-14T20:10:25.930Z,10.85
2019-02-14T20:12:56.471Z,11.00
2019-02-14T20:15:36.497Z,11.43
2019-02-14T20:17:59.218Z,10.65
2019-02-14T20:20:29.595Z,10.48
2019-02-14T20:23:01.038Z,10.90
2019-02-14T20:25:33.001Z,9.93
2019-02-14T20:28:05.307Z,11.25
2019-02-14T20:30:35.782Z,9.60
2019-02-14T20:33:06.191Z,10.58
2019-02-14T20:35:37.019Z,10.18
2019-02-14T20:38:09.064Z,10.13
2019-02-14T20:40:42.380Z,9.83
2019-02-14T20:43:12.991Z,9.90
2019-02-14T20:45:46.053Z,9.23
2019-02-14T20:48:16.535Z,9.70
2019-02-14T20:50:47.136Z,9.48
2019-02-14T20:53:18.603Z,9.45
2019-02-14T20:55:49.047Z,9.80
2019-02-14T20:58:19.618Z,9.03
2019-02-14T21:00:50.377Z,9.35
2019-02-14T21:03:23.575Z,9.30
2019-02-14T21:05:55.659Z,9.80
2019-02-14T21:08:27.101Z,9.30
2019-02-14T21:10:57.482Z,10.00
2019-02-14T21:13:29.786Z,8.88
2019-02-14T21:16:00.239Z,8.68
2019-02-14T21:18:30.712Z,8.70
2019-02-14T21:21:01.913Z,8.23
2019-02-14T21:23:34.182Z,8.83
2019-02-14T21:26:05.196Z,8.93
2019-02-14T21:28:36.090Z,8.95
2019-02-14T21:31:07.030Z,8.80
2019-02-14T21:33:38.019Z,8.30
2019-02-14T21:36:08.855Z,8.90
2019-02-14T21:38:39.941Z,8.33
2019-02-14T21:41:11.119Z,8.05
2019-02-14T21:43:42.382Z,8.28
2019-02-14T21:46:13.751Z,8.18
2019-02-14T21:48:45.063Z,8.38
2019-02-14T21:51:16.214Z,8.18
2019-02-14T21:53:47.036Z,8.85
2019-02-14T21:56:19.894Z,9.03
2019-02-14T21:58:50.990Z,9.33
2019-02-14T22:01:25.212Z,9.83
2019-02-14T22:03:56.117Z,9.80
2019-02-14T22:06:30.021Z,9.75
2019-02-14T22:09:00.972Z,10.23
2019-02-14T22:14:04.337Z,9.85
2019-02-14T22:16:39.019Z,9.28
2019-02-14T22:19:11.085Z,9.95
2019-02-14T22:21:52.689Z,9.15
2019-02-14T22:24:33.248Z,8.65
2019-02-14T22:27:05.539Z,8.88
2019-02-14T22:29:36.714Z,8.73
2019-02-14T22:32:08.199Z,9.30
2019-02-14T22:34:39.605Z,8.85
2019-02-14T22:37:10.955Z,8.65
2019-02-14T22:39:42.137Z,7.62
2019-02-14T22:42:13.493Z,8.28
2019-02-14T22:44:44.777Z,7.78
2019-02-14T22:47:15.854Z,7.90
2019-02-14T22:49:47.108Z,7.42
2019-02-14T22:52:18.445Z,7.60
2019-02-14T22:54:49.836Z,8.08
2019-02-14T22:57:21.435Z,7.15
2019-02-14T22:59:56.207Z,7.95
2019-02-14T23:02:27.784Z,7.10
2019-02-14T23:04:58.988Z,7.25
2019-02-14T23:07:30.228Z,6.95
2019-02-14T23:10:01.397Z,7.28
2019-02-14T23:12:32.464Z,7.15
2019-02-14T23:15:03.611Z,6.58
2019-02-14T23:17:34.942Z,7.35
2019-02-14T23:20:06.184Z,6.30
2019-02-14T23:22:37.334Z,6.85
2019-02-14T23:25:08.590Z,7.22
2019-02-14T23:27:40.969Z,6.50
2019-02-14T23:30:12.229Z,6.50
2019-02-14T23:32:43.342Z,6.30
2019-02-14T23:35:14.670Z,6.72
2019-02-14T23:37:45.937Z,6.85
2019-02-14T23:40:17.269Z,6.92
2019-02-14T23:42:48.595Z,6.37
2019-02-14T23:45:19.863Z,6.90
2019-02-14T23:47:51.117Z,6.22
2019-02-14T23:50:22.590Z,6.80
2019-02-14T23:52:53.874Z,6.60
2019-02-14T23:55:25.181Z,6.60
2019-02-14T23:57:56.378Z,5.72
